sensor_id;sensor_type;location;lat;lon;timestamp;P1;durP1;ratioP1;P2;durP2;ratioP2
29700;SDS011;57917;51.380;-0.176;2023-03-23T00:02:10;21.83;;;2.92;;
29700;SDS011;57917;51.380;-0.176;2023-03-23T00:07:56;25.17;;;3.17;;
29700;SDS011;57917;51.380;-0.176;2023-03-23T00:13:42;21.17;;;2.80;;
29700;SDS011;57917;51.380;-0.176;2023-03-23T00:19:36;9.55;;;2.55;;
29700;SDS011;57917;51.380;-0.176;2023-03-23T00:32:19;19.98;;;2.20;;
29700;SDS011;57917;51.380;-0.176;2023-03-23T00:44:50;22.58;;;4.13;;
29700;SDS011;57917;51.380;-0.176;2023-03-23T00:50:36;11.48;;;1.80;;
29700;SDS011;57917;51.380;-0.176;2023-03-23T00:56:21;20.27;;;3.00;;
29700;SDS011;57917;51.380;-0.176;2023-03-23T01:02:09;16.42;;;2.78;;
29700;SDS011;57917;51.380;-0.176;2023-03-23T01:07:55;16.60;;;2.80;;
29700;SDS011;57917;51.380;-0.176;2023-03-23T01:13:44;19.25;;;3.17;;
29700;SDS011;57917;51.380;-0.176;2023-03-23T01:19:34;28.10;;;2.55;;
29700;SDS011;57917;51.380;-0.176;2023-03-23T01:25:20;19.38;;;3.95;;
29700;SDS011;57917;51.380;-0.176;2023-03-23T01:31:07;22.05;;;2.78;;
29700;SDS011;57917;51.380;-0.176;2023-03-23T01:36:57;25.63;;;3.67;;
29700;SDS011;57917;51.380;-0.176;2023-03-23T01:42:47;19.20;;;2.53;;
29700;SDS011;57917;51.380;-0.176;2023-03-23T01:48:37;18.20;;;2.75;;
29700;SDS011;57917;51.380;-0.176;2023-03-23T01:54:24;18.83;;;2.78;;
29700;SDS011;57917;51.380;-0.176;2023-03-23T02:00:12;20.60;;;3.30;;
29700;SDS011;57917;51.380;-0.176;2023-03-23T02:06:10;15.23;;;2.35;;
29700;SDS011;57917;51.380;-0.176;2023-03-23T02:12:19;13.95;;;2.92;;
29700;SDS011;57917;51.380;-0.176;2023-03-23T02:18:20;26.38;;;2.17;;
29700;SDS011;57917;51.380;-0.176;2023-03-23T02:36:54;14.18;;;2.22;;
29700;SDS011;57917;51.380;-0.176;2023-03-23T02:42:49;24.45;;;3.22;;
29700;SDS011;57917;51.380;-0.176;2023-03-23T02:48:38;18.33;;;2.45;;
29700;SDS011;57917;51.380;-0.176;2023-03-23T02:54:27;18.63;;;2.60;;
29700;SDS011;57917;51.380;-0.176;2023-03-23T03:00:17;12.93;;;2.38;;
29700;SDS011;57917;51.380;-0.176;2023-03-23T03:11:59;17.52;;;2.55;;
29700;SDS011;57917;51.380;-0.176;2023-03-23T03:23:51;18.30;;;2.65;;
29700;SDS011;57917;51.380;-0.176;2023-03-23T03:29:42;11.15;;;2.17;;
29700;SDS011;57917;51.380;-0.176;2023-03-23T03:35:35;25.70;;;2.57;;
29700;SDS011;57917;51.380;-0.176;2023-03-23T03:41:22;24.13;;;3.47;;
29700;SDS011;57917;51.380;-0.176;2023-03-23T03:47:11;16.33;;;2.83;;
29700;SDS011;57917;51.380;-0.176;2023-03-23T03:53:00;24.02;;;2.67;;
29700;SDS011;57917;51.380;-0.176;2023-03-23T03:58:46;17.90;;;1.77;;
29700;SDS011;57917;51.380;-0.176;2023-03-23T04:04:52;23.65;;;2.70;;
29700;SDS011;57917;51.380;-0.176;2023-03-23T04:10:38;12.38;;;2.45;;
29700;SDS011;57917;51.380;-0.176;2023-03-23T04:16:26;22.33;;;2.97;;
29700;SDS011;57917;51.380;-0.176;2023-03-23T04:22:15;21.40;;;2.35;;
29700;SDS011;57917;51.380;-0.176;2023-03-23T04:28:03;23.85;;;2.80;;
29700;SDS011;57917;51.380;-0.176;2023-03-23T04:33:56;24.50;;;5.95;;
29700;SDS011;57917;51.380;-0.176;2023-03-23T04:39:46;16.73;;;2.38;;
29700;SDS011;57917;51.380;-0.176;2023-03-23T04:45:34;28.10;;;2.88;;
29700;SDS011;57917;51.380;-0.176;2023-03-23T04:51:25;21.52;;;2.10;;
29700;SDS011;57917;51.380;-0.176;2023-03-23T04:57:13;26.20;;;3.33;;
29700;SDS011;57917;51.380;-0.176;2023-03-23T05:03:06;31.27;;;3.83;;
29700;SDS011;57917;51.380;-0.176;2023-03-23T05:08:53;22.65;;;3.03;;
29700;SDS011;57917;51.380;-0.176;2023-03-23T05:14:44;29.20;;;3.53;;
29700;SDS011;57917;51.380;-0.176;2023-03-23T05:20:33;27.23;;;3.00;;
29700;SDS011;57917;51.380;-0.176;2023-03-23T05:26:23;20.85;;;2.95;;
29700;SDS011;57917;51.380;-0.176;2023-03-23T05:32:15;39.45;;;3.85;;
29700;SDS011;57917;51.380;-0.176;2023-03-23T05:38:04;26.60;;;2.75;;
29700;SDS011;57917;51.380;-0.176;2023-03-23T05:43:50;22.50;;;2.88;;
29700;SDS011;57917;51.380;-0.176;2023-03-23T05:49:52;26.10;;;3.30;;
29700;SDS011;57917;51.380;-0.176;2023-03-23T05:55:40;16.10;;;1.98;;
29700;SDS011;57917;51.380;-0.176;2023-03-23T06:01:39;13.38;;;2.53;;
29700;SDS011;57917;51.380;-0.176;2023-03-23T06:07:29;19.30;;;3.47;;
29700;SDS011;57917;51.380;-0.176;2023-03-23T06:13:21;31.58;;;2.95;;
29700;SDS011;57917;51.380;-0.176;2023-03-23T06:19:10;29.42;;;3.13;;
29700;SDS011;57917;51.380;-0.176;2023-03-23T06:30:59;32.40;;;4.38;;
29700;SDS011;57917;51.380;-0.176;2023-03-23T06:36:46;20.45;;;3.40;;
29700;SDS011;57917;51.380;-0.176;2023-03-23T06:48:45;29.95;;;3.60;;
29700;SDS011;57917;51.380;-0.176;2023-03-23T06:54:37;19.30;;;2.57;;
29700;SDS011;57917;51.380;-0.176;2023-03-23T07:00:24;28.27;;;2.65;;
29700;SDS011;57917;51.380;-0.176;2023-03-23T07:06:11;22.27;;;2.67;;
29700;SDS011;57917;51.380;-0.176;2023-03-23T07:12:08;22.75;;;3.20;;
29700;SDS011;57917;51.380;-0.176;2023-03-23T07:18:02;22.70;;;3.47;;
29700;SDS011;57917;51.380;-0.176;2023-03-23T07:24:00;14.23;;;3.05;;
29700;SDS011;57917;51.380;-0.176;2023-03-23T07:30:13;38.88;;;3.50;;
29700;SDS011;57917;51.380;-0.176;2023-03-23T07:36:11;30.13;;;2.97;;
29700;SDS011;57917;51.380;-0.176;2023-03-23T07:42:03;15.55;;;2.67;;
29700;SDS011;57917;51.380;-0.176;2023-03-23T07:48:07;20.25;;;3.30;;
29700;SDS011;57917;51.380;-0.176;2023-03-23T07:53:53;23.40;;;3.40;;
29700;SDS011;57917;51.380;-0.176;2023-03-23T08:00:14;28.95;;;4.68;;
29700;SDS011;57917;51.380;-0.176;2023-03-23T08:06:06;23.85;;;3.78;;
29700;SDS011;57917;51.380;-0.176;2023-03-23T08:12:11;19.88;;;3.22;;
29700;SDS011;57917;51.380;-0.176;2023-03-23T08:18:29;19.20;;;2.17;;
29700;SDS011;57917;51.380;-0.176;2023-03-23T08:24:36;20.75;;;3.15;;
29700;SDS011;57917;51.380;-0.176;2023-03-23T08:30:33;19.55;;;2.85;;
29700;SDS011;57917;51.380;-0.176;2023-03-23T08:36:36;18.13;;;4.38;;
29700;SDS011;57917;51.380;-0.176;2023-03-23T08:42:33;18.65;;;2.50;;
29700;SDS011;57917;51.380;-0.176;2023-03-23T08:48:20;11.13;;;2.40;;
29700;SDS011;57917;51.380;-0.176;2023-03-23T08:54:46;16.92;;;2.88;;
29700;SDS011;57917;51.380;-0.176;2023-03-23T09:00:41;29.90;;;2.40;;
29700;SDS011;57917;51.380;-0.176;2023-03-23T09:06:37;20.77;;;2.08;;
29700;SDS011;57917;51.380;-0.176;2023-03-23T09:12:23;22.05;;;3.80;;
29700;SDS011;57917;51.380;-0.176;2023-03-23T09:18:09;21.33;;;2.67;;
29700;SDS011;57917;51.380;-0.176;2023-03-23T09:23:55;13.05;;;2.28;;
29700;SDS011;57917;51.380;-0.176;2023-03-23T09:29:44;19.52;;;2.15;;
29700;SDS011;57917;51.380;-0.176;2023-03-23T09:35:32;20.15;;;2.53;;
29700;SDS011;57917;51.380;-0.176;2023-03-23T09:47:37;15.65;;;2.17;;
29700;SDS011;57917;51.380;-0.176;2023-03-23T09:53:36;14.80;;;2.53;;
29700;SDS011;57917;51.380;-0.176;2023-03-23T09:59:35;18.83;;;2.30;;
29700;SDS011;57917;51.380;-0.176;2023-03-23T10:11:27;16.23;;;2.50;;
29700;SDS011;57917;51.380;-0.176;2023-03-23T10:17:30;21.60;;;2.83;;
29700;SDS011;57917;51.380;-0.176;2023-03-23T10:23:32;12.80;;;2.15;;
29700;SDS011;57917;51.380;-0.176;2023-03-23T10:29:33;14.48;;;2.05;;
29700;SDS011;57917;51.380;-0.176;2023-03-23T10:35:29;6.15;;;1.42;;
29700;SDS011;57917;51.380;-0.176;2023-03-23T10:41:25;7.50;;;1.40;;
29700;SDS011;57917;51.380;-0.176;2023-03-23T10:47:20;7.57;;;1.45;;
29700;SDS011;57917;51.380;-0.176;2023-03-23T10:53:16;14.65;;;2.05;;
29700;SDS011;57917;51.380;-0.176;2023-03-23T10:59:13;18.50;;;2.15;;
29700;SDS011;57917;51.380;-0.176;2023-03-23T11:05:21;18.00;;;2.28;;
29700;SDS011;57917;51.380;-0.176;2023-03-23T11:11:11;13.32;;;2.47;;
29700;SDS011;57917;51.380;-0.176;2023-03-23T11:17:02;11.85;;;2.28;;
29700;SDS011;57917;51.380;-0.176;2023-03-23T11:22:49;17.83;;;2.28;;
29700;SDS011;57917;51.380;-0.176;2023-03-23T11:28:37;21.15;;;3.05;;
29700;SDS011;57917;51.380;-0.176;2023-03-23T11:34:35;22.47;;;2.37;;
29700;SDS011;57917;51.380;-0.176;2023-03-23T11:40:27;16.33;;;2.83;;
29700;SDS011;57917;51.380;-0.176;2023-03-23T11:46:38;14.52;;;2.53;;
29700;SDS011;57917;51.380;-0.176;2023-03-23T11:58:47;15.55;;;2.67;;
29700;SDS011;57917;51.380;-0.176;2023-03-23T12:16:17;24.98;;;3.00;;
29700;SDS011;57917;51.380;-0.176;2023-03-23T12:28:26;26.95;;;3.10;;
29700;SDS011;57917;51.380;-0.176;2023-03-23T12:40:32;24.05;;;3.45;;
29700;SDS011;57917;51.380;-0.176;2023-03-23T12:59:02;19.15;;;3.05;;
29700;SDS011;57917;51.380;-0.176;2023-03-23T13:04:55;15.15;;;2.88;;
29700;SDS011;57917;51.380;-0.176;2023-03-23T13:10:55;12.73;;;3.45;;
29700;SDS011;57917;51.380;-0.176;2023-03-23T13:22:52;23.60;;;3.80;;
29700;SDS011;57917;51.380;-0.176;2023-03-23T13:34:47;20.25;;;3.05;;
29700;SDS011;57917;51.380;-0.176;2023-03-23T13:40:33;27.40;;;3.22;;
29700;SDS011;57917;51.380;-0.176;2023-03-23T13:52:15;24.05;;;3.53;;
29700;SDS011;57917;51.380;-0.176;2023-03-23T14:03:53;14.68;;;3.08;;
29700;SDS011;57917;51.380;-0.176;2023-03-23T14:09:41;28.60;;;3.70;;
29700;SDS011;57917;51.380;-0.176;2023-03-23T14:15:29;11.52;;;2.60;;
29700;SDS011;57917;51.380;-0.176;2023-03-23T14:21:20;19.40;;;3.15;;
29700;SDS011;57917;51.380;-0.176;2023-03-23T14:27:09;16.25;;;2.80;;
29700;SDS011;57917;51.380;-0.176;2023-03-23T14:33:02;33.85;;;3.63;;
29700;SDS011;57917;51.380;-0.176;2023-03-23T14:45:12;20.77;;;3.13;;
29700;SDS011;57917;51.380;-0.176;2023-03-23T14:51:01;24.52;;;4.15;;
29700;SDS011;57917;51.380;-0.176;2023-03-23T14:56:50;19.42;;;3.58;;
29700;SDS011;57917;51.380;-0.176;2023-03-23T15:02:36;23.20;;;3.60;;
29700;SDS011;57917;51.380;-0.176;2023-03-23T15:08:27;26.13;;;3.45;;
29700;SDS011;57917;51.380;-0.176;2023-03-23T15:14:20;20.27;;;3.50;;
29700;SDS011;57917;51.380;-0.176;2023-03-23T15:20:19;15.40;;;2.60;;
29700;SDS011;57917;51.380;-0.176;2023-03-23T15:26:17;13.63;;;2.92;;
29700;SDS011;57917;51.380;-0.176;2023-03-23T15:32:09;22.05;;;3.80;;
29700;SDS011;57917;51.380;-0.176;2023-03-23T15:38:00;7.85;;;2.28;;
29700;SDS011;57917;51.380;-0.176;2023-03-23T15:43:49;29.40;;;3.40;;
29700;SDS011;57917;51.380;-0.176;2023-03-23T15:49:43;14.10;;;2.47;;
29700;SDS011;57917;51.380;-0.176;2023-03-23T15:55:37;16.95;;;2.28;;
29700;SDS011;57917;51.380;-0.176;2023-03-23T16:01:26;14.93;;;2.10;;
29700;SDS011;57917;51.380;-0.176;2023-03-23T16:07:14;26.33;;;2.67;;
29700;SDS011;57917;51.380;-0.176;2023-03-23T16:13:02;22.30;;;2.35;;
29700;SDS011;57917;51.380;-0.176;2023-03-23T16:18:50;17.02;;;2.65;;
29700;SDS011;57917;51.380;-0.176;2023-03-23T16:24:37;16.83;;;3.38;;
29700;SDS011;57917;51.380;-0.176;2023-03-23T16:30:25;10.43;;;2.40;;
29700;SDS011;57917;51.380;-0.176;2023-03-23T16:36:14;11.80;;;2.10;;
29700;SDS011;57917;51.380;-0.176;2023-03-23T16:42:01;8.70;;;1.73;;
29700;SDS011;57917;51.380;-0.176;2023-03-23T16:47:48;3.15;;;1.00;;
29700;SDS011;57917;51.380;-0.176;2023-03-23T16:53:36;12.02;;;1.90;;
29700;SDS011;57917;51.380;-0.176;2023-03-23T16:59:26;10.10;;;1.33;;
29700;SDS011;57917;51.380;-0.176;2023-03-23T17:05:18;4.80;;;0.90;;
29700;SDS011;57917;51.380;-0.176;2023-03-23T17:11:06;7.28;;;1.23;;
29700;SDS011;57917;51.380;-0.176;2023-03-23T17:16:53;4.38;;;1.08;;
29700;SDS011;57917;51.380;-0.176;2023-03-23T17:22:39;8.98;;;1.17;;
29700;SDS011;57917;51.380;-0.176;2023-03-23T17:28:26;17.88;;;1.50;;
29700;SDS011;57917;51.380;-0.176;2023-03-23T17:34:13;10.18;;;1.58;;
29700;SDS011;57917;51.380;-0.176;2023-03-23T17:40:00;10.95;;;1.88;;
29700;SDS011;57917;51.380;-0.176;2023-03-23T17:45:47;5.20;;;1.50;;
29700;SDS011;57917;51.380;-0.176;2023-03-23T17:51:35;11.85;;;2.08;;
29700;SDS011;57917;51.380;-0.176;2023-03-23T17:57:22;13.48;;;2.38;;
29700;SDS011;57917;51.380;-0.176;2023-03-23T18:03:10;12.57;;;2.28;;
29700;SDS011;57917;51.380;-0.176;2023-03-23T18:08:58;14.15;;;1.80;;
29700;SDS011;57917;51.380;-0.176;2023-03-23T18:14:45;11.60;;;1.90;;
29700;SDS011;57917;51.380;-0.176;2023-03-23T18:20:31;16.98;;;2.28;;
29700;SDS011;57917;51.380;-0.176;2023-03-23T18:26:19;10.98;;;1.65;;
29700;SDS011;57917;51.380;-0.176;2023-03-23T18:32:07;6.72;;;1.75;;
29700;SDS011;57917;51.380;-0.176;2023-03-23T18:37:54;7.20;;;1.55;;
29700;SDS011;57917;51.380;-0.176;2023-03-23T18:43:44;7.75;;;1.23;;
29700;SDS011;57917;51.380;-0.176;2023-03-23T18:49:31;10.90;;;1.42;;
29700;SDS011;57917;51.380;-0.176;2023-03-23T18:55:19;7.97;;;1.55;;
29700;SDS011;57917;51.380;-0.176;2023-03-23T19:01:08;6.07;;;1.52;;
29700;SDS011;57917;51.380;-0.176;2023-03-23T19:06:57;8.18;;;1.60;;
29700;SDS011;57917;51.380;-0.176;2023-03-23T19:12:48;6.82;;;2.00;;
29700;SDS011;57917;51.380;-0.176;2023-03-23T19:18:35;4.55;;;1.23;;
29700;SDS011;57917;51.380;-0.176;2023-03-23T19:24:22;10.85;;;1.45;;
29700;SDS011;57917;51.380;-0.176;2023-03-23T19:30:12;3.05;;;1.38;;
29700;SDS011;57917;51.380;-0.176;2023-03-23T19:36:21;4.45;;;1.13;;
29700;SDS011;57917;51.380;-0.176;2023-03-23T19:42:52;8.30;;;2.73;;
29700;SDS011;57917;51.380;-0.176;2023-03-23T19:48:39;5.70;;;1.27;;
29700;SDS011;57917;51.380;-0.176;2023-03-23T19:54:26;10.35;;;1.33;;
29700;SDS011;57917;51.380;-0.176;2023-03-23T20:00:13;7.85;;;1.10;;
29700;SDS011;57917;51.380;-0.176;2023-03-23T20:06:05;4.75;;;1.20;;
29700;SDS011;57917;51.380;-0.176;2023-03-23T20:11:56;6.22;;;1.35;;
29700;SDS011;57917;51.380;-0.176;2023-03-23T20:17:43;6.65;;;1.00;;
29700;SDS011;57917;51.380;-0.176;2023-03-23T20:23:30;14.05;;;1.27;;
29700;SDS011;57917;51.380;-0.176;2023-03-23T20:29:17;15.35;;;1.70;;
29700;SDS011;57917;51.380;-0.176;2023-03-23T20:35:05;5.70;;;1.23;;
29700;SDS011;57917;51.380;-0.176;2023-03-23T20:40:57;62.33;;;3.28;;
29700;SDS011;57917;51.380;-0.176;2023-03-23T20:46:45;33.03;;;1.92;;
29700;SDS011;57917;51.380;-0.176;2023-03-23T20:52:36;7.90;;;1.58;;
29700;SDS011;57917;51.380;-0.176;2023-03-23T20:58:26;5.70;;;1.13;;
29700;SDS011;57917;51.380;-0.176;2023-03-23T21:04:16;7.50;;;1.30;;
29700;SDS011;57917;51.380;-0.176;2023-03-23T21:10:16;8.95;;;1.30;;
29700;SDS011;57917;51.380;-0.176;2023-03-23T21:16:04;5.32;;;1.17;;
29700;SDS011;57917;51.380;-0.176;2023-03-23T21:21:53;4.72;;;1.17;;
29700;SDS011;57917;51.380;-0.176;2023-03-23T21:27:43;5.95;;;1.20;;
29700;SDS011;57917;51.380;-0.176;2023-03-23T21:33:34;5.87;;;1.33;;
29700;SDS011;57917;51.380;-0.176;2023-03-23T21:39:22;1.70;;;0.85;;
29700;SDS011;57917;51.380;-0.176;2023-03-23T21:45:14;3.22;;;1.35;;
29700;SDS011;57917;51.380;-0.176;2023-03-23T21:51:24;2.83;;;0.95;;
29700;SDS011;57917;51.380;-0.176;2023-03-23T21:57:12;10.68;;;1.23;;
29700;SDS011;57917;51.380;-0.176;2023-03-23T22:02:59;5.20;;;1.02;;
29700;SDS011;57917;51.380;-0.176;2023-03-23T22:08:46;5.30;;;1.15;;
29700;SDS011;57917;51.380;-0.176;2023-03-23T22:14:33;2.83;;;1.15;;
29700;SDS011;57917;51.380;-0.176;2023-03-23T22:20:20;2.85;;;1.30;;
29700;SDS011;57917;51.380;-0.176;2023-03-23T22:26:08;3.10;;;0.93;;
29700;SDS011;57917;51.380;-0.176;2023-03-23T22:32:10;4.25;;;0.65;;
29700;SDS011;57917;51.380;-0.176;2023-03-23T22:38:02;9.13;;;1.23;;
29700;SDS011;57917;51.380;-0.176;2023-03-23T22:43:49;6.90;;;1.17;;
29700;SDS011;57917;51.380;-0.176;2023-03-23T22:49:49;2.42;;;1.13;;
29700;SDS011;57917;51.380;-0.176;2023-03-23T22:55:40;8.00;;;1.25;;
29700;SDS011;57917;51.380;-0.176;2023-03-23T23:08:28;6.15;;;1.13;;
29700;SDS011;57917;51.380;-0.176;2023-03-23T23:14:18;4.43;;;1.35;;
29700;SDS011;57917;51.380;-0.176;2023-03-23T23:20:08;6.32;;;1.92;;
29700;SDS011;57917;51.380;-0.176;2023-03-23T23:26:08;4.95;;;1.45;;
29700;SDS011;57917;51.380;-0.176;2023-03-23T23:31:57;8.00;;;1.10;;
29700;SDS011;57917;51.380;-0.176;2023-03-23T23:37:50;3.40;;;1.05;;
29700;SDS011;57917;51.380;-0.176;2023-03-23T23:44:06;9.65;;;1.58;;
29700;SDS011;57917;51.380;-0.176;2023-03-23T23:49:57;4.03;;;1.08;;
29700;SDS011;57917;51.380;-0.176;2023-03-23T23:56:13;7.57;;;1.52;;
